sensor_id;sensor_type;location;lat;lon;timestamp;P1;durP1;ratioP1;P2;durP2;ratioP2
24483;SDS011;12643;51.620;7.548;2023-05-02T00:02:06;31.80;;;24.73;;
24483;SDS011;12643;51.620;7.548;2023-05-02T00:04:34;28.20;;;23.52;;
24483;SDS011;12643;51.620;7.548;2023-05-02T00:07:04;37.38;;;24.80;;
24483;SDS011;12643;51.620;7.548;2023-05-02T00:09:32;31.60;;;24.50;;
24483;SDS011;12643;51.620;7.548;2023-05-02T00:12:00;29.80;;;24.48;;
24483;SDS011;12643;51.620;7.548;2023-05-02T00:14:28;33.10;;;25.02;;
24483;SDS011;12643;51.620;7.548;2023-05-02T00:16:56;34.72;;;24.85;;
24483;SDS011;12643;51.620;7.548;2023-05-02T00:19:24;35.90;;;25.98;;
24483;SDS011;12643;51.620;7.548;2023-05-02T00:21:52;36.83;;;27.20;;
24483;SDS011;12643;51.620;7.548;2023-05-02T00:24:22;35.50;;;26.42;;
24483;SDS011;12643;51.620;7.548;2023-05-02T00:26:52;37.92;;;27.15;;
24483;SDS011;12643;51.620;7.548;2023-05-02T00:29:21;40.92;;;29.00;;
24483;SDS011;12643;51.620;7.548;2023-05-02T00:31:49;43.03;;;30.58;;
24483;SDS011;12643;51.620;7.548;2023-05-02T00:34:17;44.28;;;30.75;;
24483;SDS011;12643;51.620;7.548;2023-05-02T00:36:46;47.15;;;32.90;;
24483;SDS011;12643;51.620;7.548;2023-05-02T00:39:15;48.67;;;32.30;;
24483;SDS011;12643;51.620;7.548;2023-05-02T00:41:44;49.30;;;33.45;;
24483;SDS011;12643;51.620;7.548;2023-05-02T00:44:13;51.15;;;34.30;;
24483;SDS011;12643;51.620;7.548;2023-05-02T00:46:41;54.53;;;34.80;;
24483;SDS011;12643;51.620;7.548;2023-05-02T00:49:09;51.67;;;36.22;;
24483;SDS011;12643;51.620;7.548;2023-05-02T00:51:37;53.08;;;35.90;;
24483;SDS011;12643;51.620;7.548;2023-05-02T00:54:05;54.47;;;36.15;;
24483;SDS011;12643;51.620;7.548;2023-05-02T00:56:33;54.63;;;34.22;;
24483;SDS011;12643;51.620;7.548;2023-05-02T00:59:02;53.47;;;35.55;;
24483;SDS011;12643;51.620;7.548;2023-05-02T01:01:34;52.95;;;35.85;;
24483;SDS011;12643;51.620;7.548;2023-05-02T01:04:09;57.08;;;37.22;;
24483;SDS011;12643;51.620;7.548;2023-05-02T01:06:47;52.92;;;35.25;;
24483;SDS011;12643;51.620;7.548;2023-05-02T01:09:28;55.05;;;35.88;;
24483;SDS011;12643;51.620;7.548;2023-05-02T01:12:09;60.40;;;37.72;;
24483;SDS011;12643;51.620;7.548;2023-05-02T01:14:44;55.35;;;34.50;;
24483;SDS011;12643;51.620;7.548;2023-05-02T01:17:16;59.95;;;37.00;;
24483;SDS011;12643;51.620;7.548;2023-05-02T01:19:50;56.65;;;37.15;;
24483;SDS011;12643;51.620;7.548;2023-05-02T01:22:20;61.33;;;38.47;;
24483;SDS011;12643;51.620;7.548;2023-05-02T01:24:54;58.67;;;37.33;;
24483;SDS011;12643;51.620;7.548;2023-05-02T01:27:30;57.97;;;37.50;;
24483;SDS011;12643;51.620;7.548;2023-05-02T01:30:04;62.03;;;39.35;;
24483;SDS011;12643;51.620;7.548;2023-05-02T01:32:34;58.53;;;37.92;;
24483;SDS011;12643;51.620;7.548;2023-05-02T01:35:05;65.18;;;38.88;;
24483;SDS011;12643;51.620;7.548;2023-05-02T01:37:35;53.05;;;34.80;;
24483;SDS011;12643;51.620;7.548;2023-05-02T01:40:05;57.85;;;37.20;;
24483;SDS011;12643;51.620;7.548;2023-05-02T01:45:09;61.53;;;37.42;;
24483;SDS011;12643;51.620;7.548;2023-05-02T01:47:38;63.58;;;39.55;;
24483;SDS011;12643;51.620;7.548;2023-05-02T01:50:09;67.43;;;38.78;;
24483;SDS011;12643;51.620;7.548;2023-05-02T01:52:41;58.83;;;37.17;;
24483;SDS011;12643;51.620;7.548;2023-05-02T01:55:11;63.22;;;39.17;;
24483;SDS011;12643;51.620;7.548;2023-05-02T01:57:41;62.42;;;40.28;;
24483;SDS011;12643;51.620;7.548;2023-05-02T02:00:12;62.85;;;39.65;;
24483;SDS011;12643;51.620;7.548;2023-05-02T02:02:41;68.20;;;40.67;;
24483;SDS011;12643;51.620;7.548;2023-05-02T02:05:11;64.10;;;40.15;;
24483;SDS011;12643;51.620;7.548;2023-05-02T02:07:39;66.68;;;41.83;;
24483;SDS011;12643;51.620;7.548;2023-05-02T02:10:08;64.05;;;40.58;;
24483;SDS011;12643;51.620;7.548;2023-05-02T02:12:39;68.57;;;41.30;;
24483;SDS011;12643;51.620;7.548;2023-05-02T02:15:12;65.43;;;40.85;;
24483;SDS011;12643;51.620;7.548;2023-05-02T02:17:46;69.63;;;42.20;;
24483;SDS011;12643;51.620;7.548;2023-05-02T02:20:15;71.10;;;42.28;;
24483;SDS011;12643;51.620;7.548;2023-05-02T02:22:44;67.90;;;42.00;;
24483;SDS011;12643;51.620;7.548;2023-05-02T02:25:15;70.60;;;41.70;;
24483;SDS011;12643;51.620;7.548;2023-05-02T02:27:43;68.55;;;43.00;;
24483;SDS011;12643;51.620;7.548;2023-05-02T02:30:15;70.07;;;43.17;;
24483;SDS011;12643;51.620;7.548;2023-05-02T02:32:44;72.78;;;44.83;;
24483;SDS011;12643;51.620;7.548;2023-05-02T02:35:12;67.43;;;40.40;;
24483;SDS011;12643;51.620;7.548;2023-05-02T02:37:44;69.10;;;41.97;;
24483;SDS011;12643;51.620;7.548;2023-05-02T02:40:18;69.05;;;41.47;;
24483;SDS011;12643;51.620;7.548;2023-05-02T02:42:50;67.28;;;40.50;;
24483;SDS011;12643;51.620;7.548;2023-05-02T02:45:29;63.67;;;41.58;;
24483;SDS011;12643;51.620;7.548;2023-05-02T02:48:07;64.28;;;39.97;;
24483;SDS011;12643;51.620;7.548;2023-05-02T02:50:49;61.92;;;39.35;;
24483;SDS011;12643;51.620;7.548;2023-05-02T02:53:24;60.28;;;38.75;;
24483;SDS011;12643;51.620;7.548;2023-05-02T02:55:58;66.10;;;40.30;;
24483;SDS011;12643;51.620;7.548;2023-05-02T02:58:30;59.10;;;40.33;;
24483;SDS011;12643;51.620;7.548;2023-05-02T03:01:07;54.38;;;36.60;;
24483;SDS011;12643;51.620;7.548;2023-05-02T03:03:41;63.22;;;39.50;;
24483;SDS011;12643;51.620;7.548;2023-05-02T03:06:10;62.13;;;39.78;;
24483;SDS011;12643;51.620;7.548;2023-05-02T03:08:38;64.00;;;39.38;;
24483;SDS011;12643;51.620;7.548;2023-05-02T03:11:06;61.60;;;36.97;;
24483;SDS011;12643;51.620;7.548;2023-05-02T03:13:35;56.55;;;37.25;;
24483;SDS011;12643;51.620;7.548;2023-05-02T03:19:09;52.97;;;34.60;;
24483;SDS011;12643;51.620;7.548;2023-05-02T03:21:39;57.53;;;34.78;;
24483;SDS011;12643;51.620;7.548;2023-05-02T03:24:07;55.33;;;34.50;;
24483;SDS011;12643;51.620;7.548;2023-05-02T03:26:36;52.53;;;32.78;;
24483;SDS011;12643;51.620;7.548;2023-05-02T03:29:04;51.90;;;32.90;;
24483;SDS011;12643;51.620;7.548;2023-05-02T03:31:31;49.25;;;30.77;;
24483;SDS011;12643;51.620;7.548;2023-05-02T03:33:59;48.67;;;30.85;;
24483;SDS011;12643;51.620;7.548;2023-05-02T03:36:29;49.17;;;30.25;;
24483;SDS011;12643;51.620;7.548;2023-05-02T03:38:57;48.38;;;29.80;;
24483;SDS011;12643;51.620;7.548;2023-05-02T03:41:25;46.40;;;28.70;;
24483;SDS011;12643;51.620;7.548;2023-05-02T03:43:53;43.35;;;26.95;;
24483;SDS011;12643;51.620;7.548;2023-05-02T03:46:21;44.85;;;28.30;;
24483;SDS011;12643;51.620;7.548;2023-05-02T03:48:49;49.65;;;29.58;;
24483;SDS011;12643;51.620;7.548;2023-05-02T03:51:17;50.35;;;28.45;;
24483;SDS011;12643;51.620;7.548;2023-05-02T03:53:46;43.50;;;26.83;;
24483;SDS011;12643;51.620;7.548;2023-05-02T03:56:16;42.53;;;24.67;;
24483;SDS011;12643;51.620;7.548;2023-05-02T04:01:14;41.05;;;24.85;;
24483;SDS011;12643;51.620;7.548;2023-05-02T04:03:42;36.60;;;22.73;;
24483;SDS011;12643;51.620;7.548;2023-05-02T04:06:11;39.75;;;25.33;;
24483;SDS011;12643;51.620;7.548;2023-05-02T04:08:38;40.35;;;23.35;;
24483;SDS011;12643;51.620;7.548;2023-05-02T04:11:08;36.90;;;23.80;;
24483;SDS011;12643;51.620;7.548;2023-05-02T04:13:36;35.65;;;22.67;;
24483;SDS011;12643;51.620;7.548;2023-05-02T04:16:04;34.70;;;22.58;;
24483;SDS011;12643;51.620;7.548;2023-05-02T04:18:32;33.90;;;21.67;;
24483;SDS011;12643;51.620;7.548;2023-05-02T04:21:00;36.70;;;21.45;;
24483;SDS011;12643;51.620;7.548;2023-05-02T04:23:29;36.47;;;21.90;;
24483;SDS011;12643;51.620;7.548;2023-05-02T04:25:56;37.30;;;21.63;;
24483;SDS011;12643;51.620;7.548;2023-05-02T04:28:26;36.50;;;21.45;;
24483;SDS011;12643;51.620;7.548;2023-05-02T04:30:56;33.13;;;19.27;;
24483;SDS011;12643;51.620;7.548;2023-05-02T04:33:27;34.17;;;20.73;;
24483;SDS011;12643;51.620;7.548;2023-05-02T04:35:56;39.05;;;20.73;;
24483;SDS011;12643;51.620;7.548;2023-05-02T04:38:25;37.15;;;20.38;;
24483;SDS011;12643;51.620;7.548;2023-05-02T04:40:53;32.80;;;20.27;;
24483;SDS011;12643;51.620;7.548;2023-05-02T04:43:21;31.98;;;19.33;;
24483;SDS011;12643;51.620;7.548;2023-05-02T04:45:51;38.20;;;21.55;;
24483;SDS011;12643;51.620;7.548;2023-05-02T04:48:18;34.22;;;19.90;;
24483;SDS011;12643;51.620;7.548;2023-05-02T04:50:46;32.95;;;20.58;;
24483;SDS011;12643;51.620;7.548;2023-05-02T04:53:15;36.90;;;21.23;;
24483;SDS011;12643;51.620;7.548;2023-05-02T04:55:43;34.03;;;20.42;;
24483;SDS011;12643;51.620;7.548;2023-05-02T04:58:12;35.97;;;22.17;;
24483;SDS011;12643;51.620;7.548;2023-05-02T05:00:40;35.65;;;21.50;;
24483;SDS011;12643;51.620;7.548;2023-05-02T05:03:10;36.72;;;21.15;;
24483;SDS011;12643;51.620;7.548;2023-05-02T05:05:38;36.05;;;20.88;;
24483;SDS011;12643;51.620;7.548;2023-05-02T05:08:06;33.05;;;19.90;;
24483;SDS011;12643;51.620;7.548;2023-05-02T05:10:34;35.97;;;21.02;;
24483;SDS011;12643;51.620;7.548;2023-05-02T05:13:02;38.17;;;20.65;;
24483;SDS011;12643;51.620;7.548;2023-05-02T05:15:31;32.05;;;18.08;;
24483;SDS011;12643;51.620;7.548;2023-05-02T05:18:02;29.08;;;17.23;;
24483;SDS011;12643;51.620;7.548;2023-05-02T05:20:32;33.38;;;18.13;;
24483;SDS011;12643;51.620;7.548;2023-05-02T05:23:00;30.10;;;17.83;;
24483;SDS011;12643;51.620;7.548;2023-05-02T05:25:29;23.10;;;13.43;;
24483;SDS011;12643;51.620;7.548;2023-05-02T05:27:58;17.52;;;10.85;;
24483;SDS011;12643;51.620;7.548;2023-05-02T05:30:26;14.35;;;8.32;;
24483;SDS011;12643;51.620;7.548;2023-05-02T05:32:55;16.52;;;8.50;;
24483;SDS011;12643;51.620;7.548;2023-05-02T05:35:24;13.75;;;8.23;;
24483;SDS011;12643;51.620;7.548;2023-05-02T05:37:53;14.00;;;8.90;;
24483;SDS011;12643;51.620;7.548;2023-05-02T05:40:21;10.50;;;6.70;;
24483;SDS011;12643;51.620;7.548;2023-05-02T05:42:49;12.07;;;7.20;;
24483;SDS011;12643;51.620;7.548;2023-05-02T05:45:21;8.90;;;6.40;;
24483;SDS011;12643;51.620;7.548;2023-05-02T05:47:49;8.90;;;5.95;;
24483;SDS011;12643;51.620;7.548;2023-05-02T05:50:19;10.82;;;5.95;;
24483;SDS011;12643;51.620;7.548;2023-05-02T05:52:47;15.27;;;7.07;;
24483;SDS011;12643;51.620;7.548;2023-05-02T05:55:17;9.25;;;5.80;;
24483;SDS011;12643;51.620;7.548;2023-05-02T05:57:45;10.35;;;6.45;;
24483;SDS011;12643;51.620;7.548;2023-05-02T06:00:14;9.95;;;6.13;;
24483;SDS011;12643;51.620;7.548;2023-05-02T06:02:42;7.53;;;5.80;;
24483;SDS011;12643;51.620;7.548;2023-05-02T06:05:10;7.57;;;5.80;;
24483;SDS011;12643;51.620;7.548;2023-05-02T06:07:39;8.18;;;5.20;;
24483;SDS011;12643;51.620;7.548;2023-05-02T06:10:07;12.88;;;6.32;;
24483;SDS011;12643;51.620;7.548;2023-05-02T06:12:38;13.05;;;5.28;;
24483;SDS011;12643;51.620;7.548;2023-05-02T06:15:06;8.63;;;5.18;;
24483;SDS011;12643;51.620;7.548;2023-05-02T06:17:35;8.20;;;4.90;;
24483;SDS011;12643;51.620;7.548;2023-05-02T06:20:03;8.70;;;5.40;;
24483;SDS011;12643;51.620;7.548;2023-05-02T06:22:32;7.55;;;4.57;;
24483;SDS011;12643;51.620;7.548;2023-05-02T06:25:00;11.20;;;4.70;;
24483;SDS011;12643;51.620;7.548;2023-05-02T06:27:30;9.48;;;4.60;;
24483;SDS011;12643;51.620;7.548;2023-05-02T06:30:03;10.88;;;4.28;;
24483;SDS011;12643;51.620;7.548;2023-05-02T06:32:32;7.05;;;4.07;;
24483;SDS011;12643;51.620;7.548;2023-05-02T06:35:00;9.43;;;5.15;;
24483;SDS011;12643;51.620;7.548;2023-05-02T06:37:31;6.97;;;4.18;;
24483;SDS011;12643;51.620;7.548;2023-05-02T06:40:00;7.13;;;3.92;;
24483;SDS011;12643;51.620;7.548;2023-05-02T06:42:29;6.13;;;4.18;;
24483;SDS011;12643;51.620;7.548;2023-05-02T06:44:57;8.35;;;4.18;;
24483;SDS011;12643;51.620;7.548;2023-05-02T06:47:27;5.80;;;3.80;;
24483;SDS011;12643;51.620;7.548;2023-05-02T06:49:55;5.32;;;3.75;;
24483;SDS011;12643;51.620;7.548;2023-05-02T06:52:23;4.70;;;4.18;;
24483;SDS011;12643;51.620;7.548;2023-05-02T06:54:52;6.05;;;3.70;;
24483;SDS011;12643;51.620;7.548;2023-05-02T06:57:19;9.43;;;4.28;;
24483;SDS011;12643;51.620;7.548;2023-05-02T06:59:47;6.53;;;4.18;;
24483;SDS011;12643;51.620;7.548;2023-05-02T07:02:22;8.70;;;4.57;;
24483;SDS011;12643;51.620;7.548;2023-05-02T07:04:52;10.50;;;4.70;;
24483;SDS011;12643;51.620;7.548;2023-05-02T07:07:20;9.73;;;4.60;;
24483;SDS011;12643;51.620;7.548;2023-05-02T07:09:48;7.85;;;4.20;;
24483;SDS011;12643;51.620;7.548;2023-05-02T07:12:16;10.07;;;4.18;;
24483;SDS011;12643;51.620;7.548;2023-05-02T07:14:45;10.25;;;4.40;;
24483;SDS011;12643;51.620;7.548;2023-05-02T07:17:13;13.30;;;4.30;;
24483;SDS011;12643;51.620;7.548;2023-05-02T07:19:41;8.43;;;4.85;;
24483;SDS011;12643;51.620;7.548;2023-05-02T07:22:11;9.05;;;4.30;;
24483;SDS011;12643;51.620;7.548;2023-05-02T07:24:41;8.35;;;4.75;;
24483;SDS011;12643;51.620;7.548;2023-05-02T07:27:09;10.35;;;3.95;;
24483;SDS011;12643;51.620;7.548;2023-05-02T07:29:39;10.57;;;4.85;;
24483;SDS011;12643;51.620;7.548;2023-05-02T07:32:10;10.43;;;4.28;;
24483;SDS011;12643;51.620;7.548;2023-05-02T07:34:38;7.40;;;3.10;;
24483;SDS011;12643;51.620;7.548;2023-05-02T07:37:06;3.42;;;1.95;;
24483;SDS011;12643;51.620;7.548;2023-05-02T07:39:36;1.95;;;1.60;;
24483;SDS011;12643;51.620;7.548;2023-05-02T07:42:04;2.75;;;2.17;;
24483;SDS011;12643;51.620;7.548;2023-05-02T07:44:32;4.95;;;2.15;;
24483;SDS011;12643;51.620;7.548;2023-05-02T07:47:02;4.40;;;2.20;;
24483;SDS011;12643;51.620;7.548;2023-05-02T07:49:30;6.07;;;3.03;;
24483;SDS011;12643;51.620;7.548;2023-05-02T07:51:59;8.68;;;2.95;;
24483;SDS011;12643;51.620;7.548;2023-05-02T07:54:27;5.55;;;2.97;;
24483;SDS011;12643;51.620;7.548;2023-05-02T07:56:57;8.38;;;3.90;;
24483;SDS011;12643;51.620;7.548;2023-05-02T07:59:28;12.23;;;3.88;;
24483;SDS011;12643;51.620;7.548;2023-05-02T08:01:56;6.95;;;3.75;;
24483;SDS011;12643;51.620;7.548;2023-05-02T08:04:24;8.00;;;4.38;;
24483;SDS011;12643;51.620;7.548;2023-05-02T08:06:54;13.63;;;4.38;;
24483;SDS011;12643;51.620;7.548;2023-05-02T08:09:22;14.50;;;4.75;;
24483;SDS011;12643;51.620;7.548;2023-05-02T08:11:51;10.02;;;4.00;;
24483;SDS011;12643;51.620;7.548;2023-05-02T08:14:21;12.07;;;4.22;;
24483;SDS011;12643;51.620;7.548;2023-05-02T08:16:49;17.00;;;4.40;;
24483;SDS011;12643;51.620;7.548;2023-05-02T08:19:19;14.02;;;4.10;;
24483;SDS011;12643;51.620;7.548;2023-05-02T08:21:47;12.75;;;4.35;;
24483;SDS011;12643;51.620;7.548;2023-05-02T08:24:15;13.43;;;4.95;;
24483;SDS011;12643;51.620;7.548;2023-05-02T08:26:43;17.00;;;5.65;;
24483;SDS011;12643;51.620;7.548;2023-05-02T08:29:11;16.20;;;6.10;;
24483;SDS011;12643;51.620;7.548;2023-05-02T08:31:42;16.17;;;5.45;;
24483;SDS011;12643;51.620;7.548;2023-05-02T08:34:11;10.60;;;4.80;;
24483;SDS011;12643;51.620;7.548;2023-05-02T08:36:41;14.30;;;5.03;;
24483;SDS011;12643;51.620;7.548;2023-05-02T08:39:09;14.98;;;6.10;;
24483;SDS011;12643;51.620;7.548;2023-05-02T08:41:38;13.77;;;5.20;;
24483;SDS011;12643;51.620;7.548;2023-05-02T08:44:11;14.20;;;5.10;;
24483;SDS011;12643;51.620;7.548;2023-05-02T08:46:44;14.20;;;5.22;;
24483;SDS011;12643;51.620;7.548;2023-05-02T08:49:14;11.65;;;5.13;;
24483;SDS011;12643;51.620;7.548;2023-05-02T08:51:51;17.52;;;4.50;;
24483;SDS011;12643;51.620;7.548;2023-05-02T08:54:22;15.82;;;4.88;;
24483;SDS011;12643;51.620;7.548;2023-05-02T08:56:51;11.80;;;4.13;;
24483;SDS011;12643;51.620;7.548;2023-05-02T08:59:21;13.85;;;4.28;;
24483;SDS011;12643;51.620;7.548;2023-05-02T09:01:51;7.78;;;3.58;;
24483;SDS011;12643;51.620;7.548;2023-05-02T09:04:26;10.10;;;4.18;;
24483;SDS011;12643;51.620;7.548;2023-05-02T09:06:58;9.57;;;4.35;;
24483;SDS011;12643;51.620;7.548;2023-05-02T09:09:27;9.57;;;3.80;;
24483;SDS011;12643;51.620;7.548;2023-05-02T09:11:57;7.95;;;4.15;;
24483;SDS011;12643;51.620;7.548;2023-05-02T09:14:26;9.57;;;3.88;;
24483;SDS011;12643;51.620;7.548;2023-05-02T09:16:59;14.88;;;4.75;;
24483;SDS011;12643;51.620;7.548;2023-05-02T09:19:27;8.02;;;3.78;;
24483;SDS011;12643;51.620;7.548;2023-05-02T09:22:00;12.23;;;4.72;;
24483;SDS011;12643;51.620;7.548;2023-05-02T09:26:57;11.95;;;4.15;;
24483;SDS011;12643;51.620;7.548;2023-05-02T09:29:27;12.75;;;4.18;;
24483;SDS011;12643;51.620;7.548;2023-05-02T09:32:02;13.25;;;4.60;;
24483;SDS011;12643;51.620;7.548;2023-05-02T09:34:30;12.98;;;4.45;;
24483;SDS011;12643;51.620;7.548;2023-05-02T09:37:01;15.13;;;4.78;;
24483;SDS011;12643;51.620;7.548;2023-05-02T09:39:30;12.55;;;4.03;;
24483;SDS011;12643;51.620;7.548;2023-05-02T09:41:58;18.80;;;5.03;;
24483;SDS011;12643;51.620;7.548;2023-05-02T09:44:35;12.70;;;5.00;;
24483;SDS011;12643;51.620;7.548;2023-05-02T09:47:06;13.48;;;5.20;;
24483;SDS011;12643;51.620;7.548;2023-05-02T09:49:43;13.93;;;5.15;;
24483;SDS011;12643;51.620;7.548;2023-05-02T09:52:14;22.50;;;5.43;;
24483;SDS011;12643;51.620;7.548;2023-05-02T09:54:44;11.80;;;4.32;;
24483;SDS011;12643;51.620;7.548;2023-05-02T09:57:15;14.55;;;4.47;;
24483;SDS011;12643;51.620;7.548;2023-05-02T09:59:52;12.10;;;4.40;;
24483;SDS011;12643;51.620;7.548;2023-05-02T10:02:27;15.35;;;3.78;;
24483;SDS011;12643;51.620;7.548;2023-05-02T10:04:58;18.15;;;4.43;;
24483;SDS011;12643;51.620;7.548;2023-05-02T10:07:30;14.30;;;4.95;;
24483;SDS011;12643;51.620;7.548;2023-05-02T10:10:00;13.88;;;4.25;;
24483;SDS011;12643;51.620;7.548;2023-05-02T10:12:28;9.85;;;4.22;;
24483;SDS011;12643;51.620;7.548;2023-05-02T10:15:00;16.42;;;5.05;;
24483;SDS011;12643;51.620;7.548;2023-05-02T10:17:32;15.00;;;5.20;;
24483;SDS011;12643;51.620;7.548;2023-05-02T10:20:07;16.30;;;4.22;;
24483;SDS011;12643;51.620;7.548;2023-05-02T10:22:40;19.65;;;5.03;;
24483;SDS011;12643;51.620;7.548;2023-05-02T10:27:39;16.27;;;4.28;;
24483;SDS011;12643;51.620;7.548;2023-05-02T10:30:08;20.10;;;4.65;;
24483;SDS011;12643;51.620;7.548;2023-05-02T10:32:40;13.50;;;4.57;;
24483;SDS011;12643;51.620;7.548;2023-05-02T10:35:10;12.15;;;3.85;;
24483;SDS011;12643;51.620;7.548;2023-05-02T10:37:39;13.10;;;4.00;;
24483;SDS011;12643;51.620;7.548;2023-05-02T10:40:11;8.43;;;4.20;;
24483;SDS011;12643;51.620;7.548;2023-05-02T10:42:41;11.23;;;3.58;;
24483;SDS011;12643;51.620;7.548;2023-05-02T10:45:11;13.05;;;3.42;;
24483;SDS011;12643;51.620;7.548;2023-05-02T10:48:15;16.67;;;3.40;;
24483;SDS011;12643;51.620;7.548;2023-05-02T10:50:47;16.02;;;3.78;;
24483;SDS011;12643;51.620;7.548;2023-05-02T10:53:23;8.15;;;3.58;;
24483;SDS011;12643;51.620;7.548;2023-05-02T10:58:51;12.45;;;4.15;;
24483;SDS011;12643;51.620;7.548;2023-05-02T11:01:39;13.45;;;3.60;;
24483;SDS011;12643;51.620;7.548;2023-05-02T11:04:09;9.63;;;3.60;;
24483;SDS011;12643;51.620;7.548;2023-05-02T11:09:43;13.05;;;4.30;;
24483;SDS011;12643;51.620;7.548;2023-05-02T11:12:11;18.30;;;4.55;;
24483;SDS011;12643;51.620;7.548;2023-05-02T11:15:13;8.57;;;3.83;;
24483;SDS011;12643;51.620;7.548;2023-05-02T11:17:57;12.82;;;4.05;;
24483;SDS011;12643;51.620;7.548;2023-05-02T11:20:27;19.20;;;4.22;;
24483;SDS011;12643;51.620;7.548;2023-05-02T11:22:58;20.33;;;4.55;;
24483;SDS011;12643;51.620;7.548;2023-05-02T11:25:47;8.73;;;3.70;;
24483;SDS011;12643;51.620;7.548;2023-05-02T11:34:21;7.82;;;3.58;;
24483;SDS011;12643;51.620;7.548;2023-05-02T11:36:52;8.88;;;3.42;;
24483;SDS011;12643;51.620;7.548;2023-05-02T11:39:20;7.10;;;3.50;;
24483;SDS011;12643;51.620;7.548;2023-05-02T11:41:48;6.30;;;3.28;;
24483;SDS011;12643;51.620;7.548;2023-05-02T11:44:19;10.13;;;3.53;;
24483;SDS011;12643;51.620;7.548;2023-05-02T11:46:48;9.57;;;3.33;;
24483;SDS011;12643;51.620;7.548;2023-05-02T11:49:19;8.25;;;3.42;;
24483;SDS011;12643;51.620;7.548;2023-05-02T11:51:52;10.82;;;3.30;;
24483;SDS011;12643;51.620;7.548;2023-05-02T11:54:20;9.82;;;3.45;;
24483;SDS011;12643;51.620;7.548;2023-05-02T11:56:48;9.32;;;3.22;;
24483;SDS011;12643;51.620;7.548;2023-05-02T11:59:16;6.07;;;3.00;;
24483;SDS011;12643;51.620;7.548;2023-05-02T12:01:48;6.65;;;3.25;;
24483;SDS011;12643;51.620;7.548;2023-05-02T12:06:57;6.43;;;2.70;;
24483;SDS011;12643;51.620;7.548;2023-05-02T12:09:28;10.43;;;3.08;;
24483;SDS011;12643;51.620;7.548;2023-05-02T12:11:56;8.60;;;2.80;;
24483;SDS011;12643;51.620;7.548;2023-05-02T12:14:27;10.40;;;3.60;;
24483;SDS011;12643;51.620;7.548;2023-05-02T12:16:58;11.60;;;3.00;;
24483;SDS011;12643;51.620;7.548;2023-05-02T12:19:26;11.18;;;2.88;;
24483;SDS011;12643;51.620;7.548;2023-05-02T12:21:54;9.57;;;3.75;;
24483;SDS011;12643;51.620;7.548;2023-05-02T12:24:24;7.30;;;3.53;;
24483;SDS011;12643;51.620;7.548;2023-05-02T12:27:07;6.88;;;3.20;;
24483;SDS011;12643;51.620;7.548;2023-05-02T12:29:36;13.75;;;3.03;;
24483;SDS011;12643;51.620;7.548;2023-05-02T12:32:05;7.53;;;3.63;;
24483;SDS011;12643;51.620;7.548;2023-05-02T12:34:33;8.45;;;3.25;;
24483;SDS011;12643;51.620;7.548;2023-05-02T12:40:13;10.52;;;3.10;;
24483;SDS011;12643;51.620;7.548;2023-05-02T12:42:42;10.40;;;3.38;;
24483;SDS011;12643;51.620;7.548;2023-05-02T12:45:25;8.93;;;3.13;;
24483;SDS011;12643;51.620;7.548;2023-05-02T12:47:58;5.50;;;2.53;;
24483;SDS011;12643;51.620;7.548;2023-05-02T12:50:36;8.10;;;3.13;;
24483;SDS011;12643;51.620;7.548;2023-05-02T12:53:09;7.00;;;2.70;;
24483;SDS011;12643;51.620;7.548;2023-05-02T12:55:37;6.68;;;2.97;;
24483;SDS011;12643;51.620;7.548;2023-05-02T12:58:07;7.72;;;3.42;;
24483;SDS011;12643;51.620;7.548;2023-05-02T13:00:38;7.80;;;3.00;;
24483;SDS011;12643;51.620;7.548;2023-05-02T13:03:07;8.27;;;3.20;;
24483;SDS011;12643;51.620;7.548;2023-05-02T13:05:36;5.72;;;3.60;;
24483;SDS011;12643;51.620;7.548;2023-05-02T13:08:05;8.20;;;3.75;;
24483;SDS011;12643;51.620;7.548;2023-05-02T13:10:34;11.13;;;3.38;;
24483;SDS011;12643;51.620;7.548;2023-05-02T13:13:01;10.30;;;3.30;;
24483;SDS011;12643;51.620;7.548;2023-05-02T13:15:30;8.00;;;3.35;;
24483;SDS011;12643;51.620;7.548;2023-05-02T13:17:58;10.93;;;3.47;;
24483;SDS011;12643;51.620;7.548;2023-05-02T13:20:25;9.70;;;4.15;;
24483;SDS011;12643;51.620;7.548;2023-05-02T13:22:53;7.40;;;3.85;;
24483;SDS011;12643;51.620;7.548;2023-05-02T13:25:23;11.23;;;4.38;;
24483;SDS011;12643;51.620;7.548;2023-05-02T13:27:51;9.77;;;3.95;;
24483;SDS011;12643;51.620;7.548;2023-05-02T13:30:20;8.63;;;4.30;;
24483;SDS011;12643;51.620;7.548;2023-05-02T13:32:48;9.60;;;3.78;;
24483;SDS011;12643;51.620;7.548;2023-05-02T13:35:17;12.07;;;4.20;;
24483;SDS011;12643;51.620;7.548;2023-05-02T13:37:46;12.73;;;4.25;;
24483;SDS011;12643;51.620;7.548;2023-05-02T13:40:14;8.88;;;4.22;;
24483;SDS011;12643;51.620;7.548;2023-05-02T13:42:45;10.15;;;4.13;;
24483;SDS011;12643;51.620;7.548;2023-05-02T13:45:13;11.50;;;4.30;;
24483;SDS011;12643;51.620;7.548;2023-05-02T13:47:42;11.80;;;4.55;;
24483;SDS011;12643;51.620;7.548;2023-05-02T13:50:10;15.07;;;5.10;;
24483;SDS011;12643;51.620;7.548;2023-05-02T13:52:38;12.43;;;5.15;;
24483;SDS011;12643;51.620;7.548;2023-05-02T13:55:07;14.07;;;4.70;;
24483;SDS011;12643;51.620;7.548;2023-05-02T13:57:35;10.50;;;4.30;;
24483;SDS011;12643;51.620;7.548;2023-05-02T14:02:39;12.40;;;4.95;;
24483;SDS011;12643;51.620;7.548;2023-05-02T14:05:08;13.32;;;4.90;;
24483;SDS011;12643;51.620;7.548;2023-05-02T14:07:39;12.35;;;5.15;;
24483;SDS011;12643;51.620;7.548;2023-05-02T14:10:09;17.02;;;5.65;;
24483;SDS011;12643;51.620;7.548;2023-05-02T14:12:37;10.57;;;5.60;;
24483;SDS011;12643;51.620;7.548;2023-05-02T14:15:05;13.73;;;5.30;;
24483;SDS011;12643;51.620;7.548;2023-05-02T14:17:37;13.63;;;5.43;;
24483;SDS011;12643;51.620;7.548;2023-05-02T14:20:07;13.20;;;4.78;;
24483;SDS011;12643;51.620;7.548;2023-05-02T14:22:39;16.30;;;5.43;;
24483;SDS011;12643;51.620;7.548;2023-05-02T14:25:07;17.35;;;5.00;;
24483;SDS011;12643;51.620;7.548;2023-05-02T14:27:36;16.08;;;5.88;;
24483;SDS011;12643;51.620;7.548;2023-05-02T14:30:05;13.82;;;5.05;;
24483;SDS011;12643;51.620;7.548;2023-05-02T14:32:39;15.18;;;5.43;;
24483;SDS011;12643;51.620;7.548;2023-05-02T14:35:07;15.80;;;5.45;;
24483;SDS011;12643;51.620;7.548;2023-05-02T14:37:36;13.65;;;5.20;;
24483;SDS011;12643;51.620;7.548;2023-05-02T14:40:07;18.60;;;5.75;;
24483;SDS011;12643;51.620;7.548;2023-05-02T14:42:37;14.73;;;5.53;;
24483;SDS011;12643;51.620;7.548;2023-05-02T14:45:05;13.55;;;5.97;;
24483;SDS011;12643;51.620;7.548;2023-05-02T14:47:34;11.05;;;4.78;;
24483;SDS011;12643;51.620;7.548;2023-05-02T14:50:05;14.15;;;5.63;;
24483;SDS011;12643;51.620;7.548;2023-05-02T14:52:33;12.95;;;4.70;;
24483;SDS011;12643;51.620;7.548;2023-05-02T14:55:01;11.90;;;5.60;;
24483;SDS011;12643;51.620;7.548;2023-05-02T14:57:31;19.40;;;5.82;;
24483;SDS011;12643;51.620;7.548;2023-05-02T14:59:59;15.38;;;5.18;;
24483;SDS011;12643;51.620;7.548;2023-05-02T15:02:28;14.43;;;6.00;;
24483;SDS011;12643;51.620;7.548;2023-05-02T15:04:56;10.95;;;5.35;;
24483;SDS011;12643;51.620;7.548;2023-05-02T15:07:26;10.60;;;5.47;;
24483;SDS011;12643;51.620;7.548;2023-05-02T15:09:54;14.40;;;6.10;;
24483;SDS011;12643;51.620;7.548;2023-05-02T15:12:23;10.45;;;5.28;;
24483;SDS011;12643;51.620;7.548;2023-05-02T15:14:51;11.43;;;5.07;;
24483;SDS011;12643;51.620;7.548;2023-05-02T15:20:48;13.50;;;5.32;;
24483;SDS011;12643;51.620;7.548;2023-05-02T15:23:17;13.73;;;4.90;;
24483;SDS011;12643;51.620;7.548;2023-05-02T15:25:46;11.98;;;5.28;;
24483;SDS011;12643;51.620;7.548;2023-05-02T15:28:15;14.07;;;5.53;;